sensor_id;sensor_type;location;lat;lon;timestamp;temperature;humidity
2439;DHT22;14509;47.992;7.848;2022-12-31T00:01:37;20.50;48.70
2439;DHT22;14509;47.992;7.848;2022-12-31T00:03:39;20.50;48.50
2439;DHT22;14509;47.992;7.848;2022-12-31T00:05:41;20.40;48.50
2439;DHT22;14509;47.992;7.848;2022-12-31T00:07:44;20.50;48.50
2439;DHT22;14509;47.992;7.848;2022-12-31T00:09:46;20.60;48.10
2439;DHT22;14509;47.992;7.848;2022-12-31T00:11:48;20.90;48.70
2439;DHT22;14509;47.992;7.848;2022-12-31T00:13:51;20.60;48.40
2439;DHT22;14509;47.992;7.848;2022-12-31T00:15:54;20.60;48.20
2439;DHT22;14509;47.992;7.848;2022-12-31T00:17:56;20.50;47.90
2439;DHT22;14509;47.992;7.848;2022-12-31T00:19:58;21.00;48.60
2439;DHT22;14509;47.992;7.848;2022-12-31T00:22:00;20.50;48.00
2439;DHT22;14509;47.992;7.848;2022-12-31T00:24:04;20.50;48.10
2439;DHT22;14509;47.992;7.848;2022-12-31T00:26:08;20.60;48.20
2439;DHT22;14509;47.992;7.848;2022-12-31T00:28:10;20.60;48.00
2439;DHT22;14509;47.992;7.848;2022-12-31T00:30:12;20.70;48.10
2439;DHT22;14509;47.992;7.848;2022-12-31T00:32:16;20.70;48.10
2439;DHT22;14509;47.992;7.848;2022-12-31T00:34:18;21.10;48.20
2439;DHT22;14509;47.992;7.848;2022-12-31T00:36:21;20.80;48.00
2439;DHT22;14509;47.992;7.848;2022-12-31T00:38:23;20.60;48.00
2439;DHT22;14509;47.992;7.848;2022-12-31T00:40:27;20.60;48.10
2439;DHT22;14509;47.992;7.848;2022-12-31T00:42:29;21.00;48.30
2439;DHT22;14509;47.992;7.848;2022-12-31T00:44:31;20.70;47.70
2439;DHT22;14509;47.992;7.848;2022-12-31T00:46:33;20.70;47.70
2439;DHT22;14509;47.992;7.848;2022-12-31T00:48:37;20.70;47.70
2439;DHT22;14509;47.992;7.848;2022-12-31T00:50:39;20.60;48.00
2439;DHT22;14509;47.992;7.848;2022-12-31T00:52:40;20.50;48.20
2439;DHT22;14509;47.992;7.848;2022-12-31T00:54:42;20.50;48.40
2439;DHT22;14509;47.992;7.848;2022-12-31T00:56:44;20.60;48.90
2439;DHT22;14509;47.992;7.848;2022-12-31T00:58:46;20.50;48.40
2439;DHT22;14509;47.992;7.848;2022-12-31T01:00:48;20.50;48.20
2439;DHT22;14509;47.992;7.848;2022-12-31T01:02:50;20.60;48.00
2439;DHT22;14509;47.992;7.848;2022-12-31T01:04:54;20.70;48.10
2439;DHT22;14509;47.992;7.848;2022-12-31T01:06:55;20.70;48.00
2439;DHT22;14509;47.992;7.848;2022-12-31T01:08:57;20.80;48.10
2439;DHT22;14509;47.992;7.848;2022-12-31T01:11:00;20.90;47.70
2439;DHT22;14509;47.992;7.848;2022-12-31T01:13:21;20.90;47.50
2439;DHT22;14509;47.992;7.848;2022-12-31T01:15:23;20.90;47.50
2439;DHT22;14509;47.992;7.848;2022-12-31T01:17:25;20.80;47.70
2439;DHT22;14509;47.992;7.848;2022-12-31T01:19:28;20.80;48.10
2439;DHT22;14509;47.992;7.848;2022-12-31T01:21:32;21.40;48.70
2439;DHT22;14509;47.992;7.848;2022-12-31T01:23:34;20.90;48.40
2439;DHT22;14509;47.992;7.848;2022-12-31T01:25:38;20.80;48.80
2439;DHT22;14509;47.992;7.848;2022-12-31T01:27:41;20.80;48.10
2439;DHT22;14509;47.992;7.848;2022-12-31T01:29:43;21.40;48.50
2439;DHT22;14509;47.992;7.848;2022-12-31T01:31:45;20.90;47.90
2439;DHT22;14509;47.992;7.848;2022-12-31T01:33:48;21.00;47.90
2439;DHT22;14509;47.992;7.848;2022-12-31T01:35:50;21.00;48.00
2439;DHT22;14509;47.992;7.848;2022-12-31T01:37:53;21.20;47.80
2439;DHT22;14509;47.992;7.848;2022-12-31T01:39:55;21.10;47.70
2439;DHT22;14509;47.992;7.848;2022-12-31T01:41:57;21.20;47.70
2439;DHT22;14509;47.992;7.848;2022-12-31T01:44:01;21.60;48.00
2439;DHT22;14509;47.992;7.848;2022-12-31T01:46:03;21.20;47.70
2439;DHT22;14509;47.992;7.848;2022-12-31T01:48:10;21.20;47.70
2439;DHT22;14509;47.992;7.848;2022-12-31T01:50:16;21.10;47.70
2439;DHT22;14509;47.992;7.848;2022-12-31T01:52:23;21.10;48.10
2439;DHT22;14509;47.992;7.848;2022-12-31T01:54:30;21.10;48.20
2439;DHT22;14509;47.992;7.848;2022-12-31T01:56:35;21.30;48.40
2439;DHT22;14509;47.992;7.848;2022-12-31T01:58:41;21.10;48.50
2439;DHT22;14509;47.992;7.848;2022-12-31T02:00:44;20.90;48.70
2439;DHT22;14509;47.992;7.848;2022-12-31T02:02:47;21.00;49.00
2439;DHT22;14509;47.992;7.848;2022-12-31T02:04:49;21.00;49.30
2439;DHT22;14509;47.992;7.848;2022-12-31T02:06:55;21.00;49.30
2439;DHT22;14509;47.992;7.848;2022-12-31T02:08:58;21.00;49.20
2439;DHT22;14509;47.992;7.848;2022-12-31T02:11:01;21.10;49.20
2439;DHT22;14509;47.992;7.848;2022-12-31T02:13:03;21.60;49.60
2439;DHT22;14509;47.992;7.848;2022-12-31T02:15:06;21.00;49.40
2439;DHT22;14509;47.992;7.848;2022-12-31T02:17:11;21.00;49.60
2439;DHT22;14509;47.992;7.848;2022-12-31T02:22:01;21.00;49.80
2439;DHT22;14509;47.992;7.848;2022-12-31T02:24:29;21.00;50.10
2439;DHT22;14509;47.992;7.848;2022-12-31T02:26:52;21.00;50.20
2439;DHT22;14509;47.992;7.848;2022-12-31T02:29:26;20.90;50.40
2439;DHT22;14509;47.992;7.848;2022-12-31T02:31:38;21.20;50.80
2439;DHT22;14509;47.992;7.848;2022-12-31T02:33:49;20.90;50.40
2439;DHT22;14509;47.992;7.848;2022-12-31T02:35:55;20.90;50.60
2439;DHT22;14509;47.992;7.848;2022-12-31T02:38:02;20.80;50.70
2439;DHT22;14509;47.992;7.848;2022-12-31T02:40:09;20.80;51.00
2439;DHT22;14509;47.992;7.848;2022-12-31T02:42:12;20.60;51.20
2439;DHT22;14509;47.992;7.848;2022-12-31T02:44:21;20.50;51.40
2439;DHT22;14509;47.992;7.848;2022-12-31T02:46:30;20.60;51.80
2439;DHT22;14509;47.992;7.848;2022-12-31T02:48:39;20.60;51.80
2439;DHT22;14509;47.992;7.848;2022-12-31T02:50:54;20.50;51.90
2439;DHT22;14509;47.992;7.848;2022-12-31T02:53:07;20.60;52.60
2439;DHT22;14509;47.992;7.848;2022-12-31T02:55:15;20.30;52.20
2439;DHT22;14509;47.992;7.848;2022-12-31T02:57:25;20.30;52.00
2439;DHT22;14509;47.992;7.848;2022-12-31T02:59:35;20.40;52.00
2439;DHT22;14509;47.992;7.848;2022-12-31T03:02:00;20.40;51.80
2439;DHT22;14509;47.992;7.848;2022-12-31T03:04:16;20.40;51.90
2439;DHT22;14509;47.992;7.848;2022-12-31T03:06:34;20.40;51.80
2439;DHT22;14509;47.992;7.848;2022-12-31T03:08:36;20.40;51.80
2439;DHT22;14509;47.992;7.848;2022-12-31T03:10:56;20.30;51.80
2439;DHT22;14509;47.992;7.848;2022-12-31T03:12:58;20.20;51.70
2439;DHT22;14509;47.992;7.848;2022-12-31T03:14:59;20.20;51.80
2439;DHT22;14509;47.992;7.848;2022-12-31T03:17:01;20.20;51.90
2439;DHT22;14509;47.992;7.848;2022-12-31T03:19:03;20.30;51.80
2439;DHT22;14509;47.992;7.848;2022-12-31T03:21:24;20.40;51.60
2439;DHT22;14509;47.992;7.848;2022-12-31T03:23:41;20.40;51.50
2439;DHT22;14509;47.992;7.848;2022-12-31T03:25:50;20.40;51.40
2439;DHT22;14509;47.992;7.848;2022-12-31T03:27:52;20.40;51.40
2439;DHT22;14509;47.992;7.848;2022-12-31T03:29:54;20.40;51.50
2439;DHT22;14509;47.992;7.848;2022-12-31T03:31:56;20.40;51.60
2439;DHT22;14509;47.992;7.848;2022-12-31T03:33:58;20.30;51.50
2439;DHT22;14509;47.992;7.848;2022-12-31T03:36:02;20.30;51.60
2439;DHT22;14509;47.992;7.848;2022-12-31T03:38:06;20.30;51.70
2439;DHT22;14509;47.992;7.848;2022-12-31T03:40:10;20.30;51.80
2439;DHT22;14509;47.992;7.848;2022-12-31T03:42:12;20.20;52.00
2439;DHT22;14509;47.992;7.848;2022-12-31T03:44:14;20.10;52.00
2439;DHT22;14509;47.992;7.848;2022-12-31T03:46:16;20.10;52.30
2439;DHT22;14509;47.992;7.848;2022-12-31T03:48:19;20.00;51.70
2439;DHT22;14509;47.992;7.848;2022-12-31T03:50:21;20.30;51.90
2439;DHT22;14509;47.992;7.848;2022-12-31T03:52:23;20.00;51.00
2439;DHT22;14509;47.992;7.848;2022-12-31T03:54:26;20.10;50.70
2439;DHT22;14509;47.992;7.848;2022-12-31T03:56:29;20.20;50.60
2439;DHT22;14509;47.992;7.848;2022-12-31T03:58:31;20.50;50.60
2439;DHT22;14509;47.992;7.848;2022-12-31T04:00:32;20.30;50.40
2439;DHT22;14509;47.992;7.848;2022-12-31T04:02:35;20.30;50.60
2439;DHT22;14509;47.992;7.848;2022-12-31T04:04:36;20.40;50.80
2439;DHT22;14509;47.992;7.848;2022-12-31T04:06:38;20.30;50.50
2439;DHT22;14509;47.992;7.848;2022-12-31T04:08:40;20.30;50.50
2439;DHT22;14509;47.992;7.848;2022-12-31T04:10:43;20.30;50.50
2439;DHT22;14509;47.992;7.848;2022-12-31T04:12:46;20.50;50.40
2439;DHT22;14509;47.992;7.848;2022-12-31T04:14:48;20.20;50.10
2439;DHT22;14509;47.992;7.848;2022-12-31T04:16:49;20.20;50.00
2439;DHT22;14509;47.992;7.848;2022-12-31T04:18:51;20.20;49.80
2439;DHT22;14509;47.992;7.848;2022-12-31T04:20:53;20.50;50.00
2439;DHT22;14509;47.992;7.848;2022-12-31T04:22:55;20.30;49.70
2439;DHT22;14509;47.992;7.848;2022-12-31T04:24:57;20.40;49.50
2439;DHT22;14509;47.992;7.848;2022-12-31T04:27:00;20.50;49.40
2439;DHT22;14509;47.992;7.848;2022-12-31T04:29:02;20.50;49.00
2439;DHT22;14509;47.992;7.848;2022-12-31T04:31:04;20.50;49.10
2439;DHT22;14509;47.992;7.848;2022-12-31T04:33:06;20.50;49.00
2439;DHT22;14509;47.992;7.848;2022-12-31T04:35:09;20.60;48.80
2439;DHT22;14509;47.992;7.848;2022-12-31T04:37:11;20.90;48.80
2439;DHT22;14509;47.992;7.848;2022-12-31T04:39:13;20.90;48.90
2439;DHT22;14509;47.992;7.848;2022-12-31T04:41:15;20.40;48.90
2439;DHT22;14509;47.992;7.848;2022-12-31T04:43:21;20.40;49.20
2439;DHT22;14509;47.992;7.848;2022-12-31T04:45:23;20.40;48.90
2439;DHT22;14509;47.992;7.848;2022-12-31T04:47:25;20.60;48.90
2439;DHT22;14509;47.992;7.848;2022-12-31T04:49:27;20.70;48.80
2439;DHT22;14509;47.992;7.848;2022-12-31T04:51:30;20.80;48.80
2439;DHT22;14509;47.992;7.848;2022-12-31T04:53:32;20.80;48.80
2439;DHT22;14509;47.992;7.848;2022-12-31T04:55:34;20.80;48.60
2439;DHT22;14509;47.992;7.848;2022-12-31T04:57:36;20.80;48.60
2439;DHT22;14509;47.992;7.848;2022-12-31T04:59:40;20.80;48.80
2439;DHT22;14509;47.992;7.848;2022-12-31T05:01:42;20.80;48.60
2439;DHT22;14509;47.992;7.848;2022-12-31T05:03:44;20.80;48.80
2439;DHT22;14509;47.992;7.848;2022-12-31T05:05:46;20.80;48.70
2439;DHT22;14509;47.992;7.848;2022-12-31T05:07:49;21.10;49.00
2439;DHT22;14509;47.992;7.848;2022-12-31T05:09:51;20.80;48.70
2439;DHT22;14509;47.992;7.848;2022-12-31T05:11:53;21.20;49.00
2439;DHT22;14509;47.992;7.848;2022-12-31T05:13:55;20.80;48.70
2439;DHT22;14509;47.992;7.848;2022-12-31T05:15:58;20.80;48.70
2439;DHT22;14509;47.992;7.848;2022-12-31T05:18:00;20.70;48.70
2439;DHT22;14509;47.992;7.848;2022-12-31T05:20:03;20.70;48.70
2439;DHT22;14509;47.992;7.848;2022-12-31T05:22:05;20.60;48.80
2439;DHT22;14509;47.992;7.848;2022-12-31T05:24:25;20.60;48.80
2439;DHT22;14509;47.992;7.848;2022-12-31T05:26:27;20.60;48.90
2439;DHT22;14509;47.992;7.848;2022-12-31T05:28:42;20.50;48.70
2439;DHT22;14509;47.992;7.848;2022-12-31T05:30:46;20.50;48.70
2439;DHT22;14509;47.992;7.848;2022-12-31T05:32:49;20.50;48.60
2439;DHT22;14509;47.992;7.848;2022-12-31T05:34:51;20.60;48.50
2439;DHT22;14509;47.992;7.848;2022-12-31T05:36:53;20.40;48.60
2439;DHT22;14509;47.992;7.848;2022-12-31T05:38:55;20.50;48.30
2439;DHT22;14509;47.992;7.848;2022-12-31T05:41:00;20.70;48.40
2439;DHT22;14509;47.992;7.848;2022-12-31T05:43:02;20.60;48.20
2439;DHT22;14509;47.992;7.848;2022-12-31T05:45:05;20.90;48.00
2439;DHT22;14509;47.992;7.848;2022-12-31T05:47:07;20.80;47.80
2439;DHT22;14509;47.992;7.848;2022-12-31T05:49:10;21.40;48.10
2439;DHT22;14509;47.992;7.848;2022-12-31T05:51:12;20.90;48.20
2439;DHT22;14509;47.992;7.848;2022-12-31T05:53:14;20.90;47.40
2439;DHT22;14509;47.992;7.848;2022-12-31T05:55:16;20.90;47.30
2439;DHT22;14509;47.992;7.848;2022-12-31T05:57:18;20.90;47.50
2439;DHT22;14509;47.992;7.848;2022-12-31T05:59:21;21.10;47.80
2439;DHT22;14509;47.992;7.848;2022-12-31T06:01:23;20.90;47.80
2439;DHT22;14509;47.992;7.848;2022-12-31T06:03:25;21.00;48.00
2439;DHT22;14509;47.992;7.848;2022-12-31T06:05:28;20.80;47.90
2439;DHT22;14509;47.992;7.848;2022-12-31T06:07:30;20.70;48.00
2439;DHT22;14509;47.992;7.848;2022-12-31T06:09:32;20.70;48.20
2439;DHT22;14509;47.992;7.848;2022-12-31T06:11:34;20.60;48.30
2439;DHT22;14509;47.992;7.848;2022-12-31T06:13:36;20.60;48.60
2439;DHT22;14509;47.992;7.848;2022-12-31T06:15:39;20.50;48.50
2439;DHT22;14509;47.992;7.848;2022-12-31T06:17:41;20.40;48.80
2439;DHT22;14509;47.992;7.848;2022-12-31T06:19:43;20.40;49.00
2439;DHT22;14509;47.992;7.848;2022-12-31T06:21:46;20.30;48.90
2439;DHT22;14509;47.992;7.848;2022-12-31T06:23:48;20.60;49.40
2439;DHT22;14509;47.992;7.848;2022-12-31T06:25:50;20.30;49.20
2439;DHT22;14509;47.992;7.848;2022-12-31T06:27:52;20.20;49.30
2439;DHT22;14509;47.992;7.848;2022-12-31T06:29:54;20.20;49.10
2439;DHT22;14509;47.992;7.848;2022-12-31T06:31:55;20.10;48.90
2439;DHT22;14509;47.992;7.848;2022-12-31T06:33:57;20.20;49.00
2439;DHT22;14509;47.992;7.848;2022-12-31T06:36:00;20.10;49.00
2439;DHT22;14509;47.992;7.848;2022-12-31T06:38:04;20.10;49.20
2439;DHT22;14509;47.992;7.848;2022-12-31T06:40:07;20.10;49.10
2439;DHT22;14509;47.992;7.848;2022-12-31T06:42:09;20.10;49.10
2439;DHT22;14509;47.992;7.848;2022-12-31T06:44:11;20.10;49.00
2439;DHT22;14509;47.992;7.848;2022-12-31T06:46:17;20.50;49.30
2439;DHT22;14509;47.992;7.848;2022-12-31T06:48:19;20.00;48.90
2439;DHT22;14509;47.992;7.848;2022-12-31T06:50:20;20.00;49.70
2439;DHT22;14509;47.992;7.848;2022-12-31T06:52:22;20.00;48.90
2439;DHT22;14509;47.992;7.848;2022-12-31T06:54:26;20.00;48.80
2439;DHT22;14509;47.992;7.848;2022-12-31T06:56:28;20.00;49.00
2439;DHT22;14509;47.992;7.848;2022-12-31T06:58:31;20.00;48.90
2439;DHT22;14509;47.992;7.848;2022-12-31T07:00:34;20.00;48.60
2439;DHT22;14509;47.992;7.848;2022-12-31T07:02:53;20.10;48.40
2439;DHT22;14509;47.992;7.848;2022-12-31T07:05:12;20.10;48.20
2439;DHT22;14509;47.992;7.848;2022-12-31T07:07:20;20.20;48.90
2439;DHT22;14509;47.992;7.848;2022-12-31T07:09:33;20.30;48.10
2439;DHT22;14509;47.992;7.848;2022-12-31T07:11:43;20.40;47.50
2439;DHT22;14509;47.992;7.848;2022-12-31T07:14:02;20.30;47.20
2439;DHT22;14509;47.992;7.848;2022-12-31T07:16:19;20.40;47.10
2439;DHT22;14509;47.992;7.848;2022-12-31T07:18:32;20.50;47.00
2439;DHT22;14509;47.992;7.848;2022-12-31T07:20:35;20.70;46.60
2439;DHT22;14509;47.992;7.848;2022-12-31T07:22:38;20.80;46.10
2439;DHT22;14509;47.992;7.848;2022-12-31T07:24:42;20.90;45.80
2439;DHT22;14509;47.992;7.848;2022-12-31T07:27:04;20.90;45.70
2439;DHT22;14509;47.992;7.848;2022-12-31T07:29:13;21.00;45.50
2439;DHT22;14509;47.992;7.848;2022-12-31T07:31:27;21.20;45.50
2439;DHT22;14509;47.992;7.848;2022-12-31T07:33:38;21.10;45.10
2439;DHT22;14509;47.992;7.848;2022-12-31T07:35:49;21.20;45.10
2439;DHT22;14509;47.992;7.848;2022-12-31T07:37:57;21.20;44.70
2439;DHT22;14509;47.992;7.848;2022-12-31T07:40:10;21.30;44.70
2439;DHT22;14509;47.992;7.848;2022-12-31T07:42:18;21.40;44.60
2439;DHT22;14509;47.992;7.848;2022-12-31T07:44:34;22.00;44.80
2439;DHT22;14509;47.992;7.848;2022-12-31T07:46:45;21.40;44.20
2439;DHT22;14509;47.992;7.848;2022-12-31T07:48:50;21.50;44.10
2439;DHT22;14509;47.992;7.848;2022-12-31T07:50:54;21.60;43.90
2439;DHT22;14509;47.992;7.848;2022-12-31T07:52:57;21.70;44.00
2439;DHT22;14509;47.992;7.848;2022-12-31T07:54:59;21.80;43.60
2439;DHT22;14509;47.992;7.848;2022-12-31T07:57:02;22.00;43.50
2439;DHT22;14509;47.992;7.848;2022-12-31T07:59:16;21.80;43.40
2439;DHT22;14509;47.992;7.848;2022-12-31T08:01:29;21.90;43.30
2439;DHT22;14509;47.992;7.848;2022-12-31T08:03:43;22.00;43.20
2439;DHT22;14509;47.992;7.848;2022-12-31T08:05:53;22.10;43.00
2439;DHT22;14509;47.992;7.848;2022-12-31T08:08:04;22.10;42.60
2439;DHT22;14509;47.992;7.848;2022-12-31T08:10:16;22.20;42.40
2439;DHT22;14509;47.992;7.848;2022-12-31T08:12:22;22.20;42.20
2439;DHT22;14509;47.992;7.848;2022-12-31T08:14:28;22.90;42.60
2439;DHT22;14509;47.992;7.848;2022-12-31T08:16:31;22.30;41.80
2439;DHT22;14509;47.992;7.848;2022-12-31T08:18:34;22.40;41.90
2439;DHT22;14509;47.992;7.848;2022-12-31T08:20:41;22.40;41.60
2439;DHT22;14509;47.992;7.848;2022-12-31T08:23:00;22.50;41.70
2439;DHT22;14509;47.992;7.848;2022-12-31T08:25:13;22.50;41.50
2439;DHT22;14509;47.992;7.848;2022-12-31T08:27:26;22.60;41.40
2439;DHT22;14509;47.992;7.848;2022-12-31T08:29:36;22.60;41.00
2439;DHT22;14509;47.992;7.848;2022-12-31T08:31:48;22.70;40.80
2439;DHT22;14509;47.992;7.848;2022-12-31T08:33:56;23.20;41.70
2439;DHT22;14509;47.992;7.848;2022-12-31T08:36:11;22.70;40.80
2439;DHT22;14509;47.992;7.848;2022-12-31T08:38:23;22.90;40.70
2439;DHT22;14509;47.992;7.848;2022-12-31T08:40:30;22.90;40.30
2439;DHT22;14509;47.992;7.848;2022-12-31T08:42:42;22.90;40.00
2439;DHT22;14509;47.992;7.848;2022-12-31T08:44:51;23.00;39.80
2439;DHT22;14509;47.992;7.848;2022-12-31T08:47:08;23.20;40.00
2439;DHT22;14509;47.992;7.848;2022-12-31T08:49:13;23.00;40.00
2439;DHT22;14509;47.992;7.848;2022-12-31T08:51:19;23.10;39.80
2439;DHT22;14509;47.992;7.848;2022-12-31T08:53:22;23.00;39.40
2439;DHT22;14509;47.992;7.848;2022-12-31T08:55:24;22.90;39.60
2439;DHT22;14509;47.992;7.848;2022-12-31T08:57:30;22.80;39.80
2439;DHT22;14509;47.992;7.848;2022-12-31T08:59:40;22.90;40.10
2439;DHT22;14509;47.992;7.848;2022-12-31T09:01:55;22.80;39.70
2439;DHT22;14509;47.992;7.848;2022-12-31T09:04:08;22.80;39.70
2439;DHT22;14509;47.992;7.848;2022-12-31T09:06:18;23.20;39.80
2439;DHT22;14509;47.992;7.848;2022-12-31T09:08:29;23.00;39.50
2439;DHT22;14509;47.992;7.848;2022-12-31T09:10:39;23.00;39.40
2439;DHT22;14509;47.992;7.848;2022-12-31T09:12:50;23.20;39.20
2439;DHT22;14509;47.992;7.848;2022-12-31T09:15:03;23.00;38.90
2439;DHT22;14509;47.992;7.848;2022-12-31T09:17:31;22.90;39.10
2439;DHT22;14509;47.992;7.848;2022-12-31T09:19:36;23.00;39.20
2439;DHT22;14509;47.992;7.848;2022-12-31T09:21:40;23.10;38.90
2439;DHT22;14509;47.992;7.848;2022-12-31T09:23:44;23.10;38.80
2439;DHT22;14509;47.992;7.848;2022-12-31T09:25:53;23.20;38.90
2439;DHT22;14509;47.992;7.848;2022-12-31T09:28:09;23.20;38.40
2439;DHT22;14509;47.992;7.848;2022-12-31T09:30:15;23.10;38.40
2439;DHT22;14509;47.992;7.848;2022-12-31T09:32:32;23.00;38.50
2439;DHT22;14509;47.992;7.848;2022-12-31T09:34:42;23.10;38.50
2439;DHT22;14509;47.992;7.848;2022-12-31T09:36:51;23.10;38.70
2439;DHT22;14509;47.992;7.848;2022-12-31T09:39:04;23.10;38.40
2439;DHT22;14509;47.992;7.848;2022-12-31T09:41:14;23.20;38.30
2439;DHT22;14509;47.992;7.848;2022-12-31T09:50:49;23.40;37.90
2439;DHT22;14509;47.992;7.848;2022-12-31T09:53:08;23.40;37.80
2439;DHT22;14509;47.992;7.848;2022-12-31T09:55:32;23.50;37.70
2439;DHT22;14509;47.992;7.848;2022-12-31T09:57:39;23.50;37.30
2439;DHT22;14509;47.992;7.848;2022-12-31T09:59:47;23.50;37.40
2439;DHT22;14509;47.992;7.848;2022-12-31T10:01:56;23.60;37.50
2439;DHT22;14509;47.992;7.848;2022-12-31T10:04:33;23.60;37.60
2439;DHT22;14509;47.992;7.848;2022-12-31T10:06:43;23.60;37.30
2439;DHT22;14509;47.992;7.848;2022-12-31T10:09:13;23.60;37.30
2439;DHT22;14509;47.992;7.848;2022-12-31T10:11:23;23.50;37.20
2439;DHT22;14509;47.992;7.848;2022-12-31T10:13:35;23.30;36.80
2439;DHT22;14509;47.992;7.848;2022-12-31T16:37:14;19.90;50.50
2439;DHT22;14509;47.992;7.848;2022-12-31T16:39:27;20.00;50.80
2439;DHT22;14509;47.992;7.848;2022-12-31T16:41:40;19.90;50.70
2439;DHT22;14509;47.992;7.848;2022-12-31T16:43:44;19.90;50.70
2439;DHT22;14509;47.992;7.848;2022-12-31T16:45:46;19.80;50.60
2439;DHT22;14509;47.992;7.848;2022-12-31T16:47:49;20.60;51.20
2439;DHT22;14509;47.992;7.848;2022-12-31T16:49:58;20.40;51.10
2439;DHT22;14509;47.992;7.848;2022-12-31T16:52:03;19.80;50.50
2439;DHT22;14509;47.992;7.848;2022-12-31T16:54:15;19.80;50.50
2439;DHT22;14509;47.992;7.848;2022-12-31T16:56:23;19.40;50.20
2439;DHT22;14509;47.992;7.848;2022-12-31T16:58:28;19.90;50.60
2439;DHT22;14509;47.992;7.848;2022-12-31T17:00:32;19.80;50.40
2439;DHT22;14509;47.992;7.848;2022-12-31T17:02:37;20.20;50.80
2439;DHT22;14509;47.992;7.848;2022-12-31T17:04:39;19.70;50.50
2439;DHT22;14509;47.992;7.848;2022-12-31T17:06:41;19.70;50.60
2439;DHT22;14509;47.992;7.848;2022-12-31T17:08:45;19.60;50.60
2439;DHT22;14509;47.992;7.848;2022-12-31T17:10:49;19.60;50.90
2439;DHT22;14509;47.992;7.848;2022-12-31T17:12:53;19.60;50.90
2439;DHT22;14509;47.992;7.848;2022-12-31T17:15:00;19.50;51.00
2439;DHT22;14509;47.992;7.848;2022-12-31T17:17:04;19.50;51.10
2439;DHT22;14509;47.992;7.848;2022-12-31T17:19:19;19.40;51.10
2439;DHT22;14509;47.992;7.848;2022-12-31T17:21:27;19.00;50.90
2439;DHT22;14509;47.992;7.848;2022-12-31T17:23:32;19.30;51.20
2439;DHT22;14509;47.992;7.848;2022-12-31T17:25:36;19.40;51.60
2439;DHT22;14509;47.992;7.848;2022-12-31T17:27:40;19.10;51.60
2439;DHT22;14509;47.992;7.848;2022-12-31T17:29:52;19.20;51.60
2439;DHT22;14509;47.992;7.848;2022-12-31T17:31:58;19.10;51.40
2439;DHT22;14509;47.992;7.848;2022-12-31T17:34:21;19.10;51.30
2439;DHT22;14509;47.992;7.848;2022-12-31T17:36:23;19.70;51.70
2439;DHT22;14509;47.992;7.848;2022-12-31T17:38:31;19.00;50.90
2439;DHT22;14509;47.992;7.848;2022-12-31T17:40:38;19.10;50.90
2439;DHT22;14509;47.992;7.848;2022-12-31T17:42:42;19.10;50.80
2439;DHT22;14509;47.992;7.848;2022-12-31T17:44:45;19.30;51.00
2439;DHT22;14509;47.992;7.848;2022-12-31T17:46:48;19.10;50.80
2439;DHT22;14509;47.992;7.848;2022-12-31T17:48:53;19.20;50.90
2439;DHT22;14509;47.992;7.848;2022-12-31T20:21:38;18.20;53.00
2439;DHT22;14509;47.992;7.848;2022-12-31T20:23:41;18.30;52.90
2439;DHT22;14509;47.992;7.848;2022-12-31T20:25:43;18.20;52.90
2439;DHT22;14509;47.992;7.848;2022-12-31T20:27:45;18.40;53.10
2439;DHT22;14509;47.992;7.848;2022-12-31T20:29:47;18.20;53.00
2439;DHT22;14509;47.992;7.848;2022-12-31T20:31:49;18.80;53.50
2439;DHT22;14509;47.992;7.848;2022-12-31T20:33:51;18.20;52.90
2439;DHT22;14509;47.992;7.848;2022-12-31T20:35:54;18.20;52.80
2439;DHT22;14509;47.992;7.848;2022-12-31T20:38:02;18.20;52.70
2439;DHT22;14509;47.992;7.848;2022-12-31T20:40:05;18.20;52.50
2439;DHT22;14509;47.992;7.848;2022-12-31T20:42:07;18.20;52.50
2439;DHT22;14509;47.992;7.848;2022-12-31T20:44:09;18.20;52.30
2439;DHT22;14509;47.992;7.848;2022-12-31T20:46:13;18.20;52.20
2439;DHT22;14509;47.992;7.848;2022-12-31T20:48:15;18.30;52.20
2439;DHT22;14509;47.992;7.848;2022-12-31T20:50:17;18.20;52.10
2439;DHT22;14509;47.992;7.848;2022-12-31T20:52:19;18.20;52.00
2439;DHT22;14509;47.992;7.848;2022-12-31T20:54:22;18.50;52.30
2439;DHT22;14509;47.992;7.848;2022-12-31T20:56:26;18.30;51.90
2439;DHT22;14509;47.992;7.848;2022-12-31T20:58:28;18.30;51.80
2439;DHT22;14509;47.992;7.848;2022-12-31T21:00:30;18.70;52.00
2439;DHT22;14509;47.992;7.848;2022-12-31T21:02:32;18.30;51.60
2439;DHT22;14509;47.992;7.848;2022-12-31T21:04:34;18.40;51.50
2439;DHT22;14509;47.992;7.848;2022-12-31T21:06:36;18.40;51.30
2439;DHT22;14509;47.992;7.848;2022-12-31T21:08:38;18.50;51.20
2439;DHT22;14509;47.992;7.848;2022-12-31T21:10:41;18.50;51.00
2439;DHT22;14509;47.992;7.848;2022-12-31T21:12:43;18.50;50.90
2439;DHT22;14509;47.992;7.848;2022-12-31T21:14:44;18.50;50.80
2439;DHT22;14509;47.992;7.848;2022-12-31T21:16:46;18.50;50.70
2439;DHT22;14509;47.992;7.848;2022-12-31T21:18:48;18.70;50.90
2439;DHT22;14509;47.992;7.848;2022-12-31T21:20:51;18.50;50.50
2439;DHT22;14509;47.992;7.848;2022-12-31T21:22:53;18.50;50.40
2439;DHT22;14509;47.992;7.848;2022-12-31T21:24:55;18.60;50.00
2439;DHT22;14509;47.992;7.848;2022-12-31T21:26:59;18.80;50.10
2439;DHT22;14509;47.992;7.848;2022-12-31T21:29:01;18.70;49.50
2439;DHT22;14509;47.992;7.848;2022-12-31T21:31:05;18.80;49.60
2439;DHT22;14509;47.992;7.848;2022-12-31T21:33:07;19.40;49.20
2439;DHT22;14509;47.992;7.848;2022-12-31T21:35:09;19.00;48.10
2439;DHT22;14509;47.992;7.848;2022-12-31T21:37:11;19.10;48.00
2439;DHT22;14509;47.992;7.848;2022-12-31T21:39:14;19.20;47.70
2439;DHT22;14509;47.992;7.848;2022-12-31T21:41:16;20.10;48.40
2439;DHT22;14509;47.992;7.848;2022-12-31T21:48:05;19.50;47.40
2439;DHT22;14509;47.992;7.848;2022-12-31T21:50:24;19.50;47.30
2439;DHT22;14509;47.992;7.848;2022-12-31T21:52:26;19.50;47.20
2439;DHT22;14509;47.992;7.848;2022-12-31T21:54:30;19.60;47.30
2439;DHT22;14509;47.992;7.848;2022-12-31T21:56:49;19.50;47.80
2439;DHT22;14509;47.992;7.848;2022-12-31T21:58:54;19.60;47.10
2439;DHT22;14509;47.992;7.848;2022-12-31T22:01:15;19.60;47.10
2439;DHT22;14509;47.992;7.848;2022-12-31T22:03:37;19.70;47.10
2439;DHT22;14509;47.992;7.848;2022-12-31T22:05:44;19.60;46.90
2439;DHT22;14509;47.992;7.848;2022-12-31T22:07:47;20.00;47.20
2439;DHT22;14509;47.992;7.848;2022-12-31T22:09:49;19.70;46.80
2439;DHT22;14509;47.992;7.848;2022-12-31T22:11:51;19.90;46.80
2439;DHT22;14509;47.992;7.848;2022-12-31T22:13:53;19.60;46.50
2439;DHT22;14509;47.992;7.848;2022-12-31T22:15:57;19.90;46.60
2439;DHT22;14509;47.992;7.848;2022-12-31T22:17:59;19.60;46.30
2439;DHT22;14509;47.992;7.848;2022-12-31T22:20:03;19.60;46.20
2439;DHT22;14509;47.992;7.848;2022-12-31T22:22:05;19.60;46.10
2439;DHT22;14509;47.992;7.848;2022-12-31T22:24:07;19.70;46.00
2439;DHT22;14509;47.992;7.848;2022-12-31T22:26:11;20.20;46.10
2439;DHT22;14509;47.992;7.848;2022-12-31T22:28:14;19.70;45.80
2439;DHT22;14509;47.992;7.848;2022-12-31T22:30:16;19.80;45.70
2439;DHT22;14509;47.992;7.848;2022-12-31T22:32:18;19.70;45.50
2439;DHT22;14509;47.992;7.848;2022-12-31T22:34:20;19.80;45.60